Time;durP1;ratioP1;P1;durP2;ratioP2;P2;SDS_P1;SDS_P2;PMS_P1;PMS_P2;Temp;Humidity;BMP_temperature;BMP_pressure;BME280_temperature;BME280_humidity;BME280_pressure;Samples;Min_cycle;Max_cycle;Signal;HPM_P1;HPM_P2
2023/08/06 00:00:26;;;;;;;24.35;17.83;;;14.10;99.90;;;;;;5108340;27;20047;-82
2023/08/06 00:02:52;;;;;;;25.83;17.17;;;14.10;99.90;;;;;;5087486;27;20036;-82
2023/08/06 00:05:23;;;;;;;20.02;14.90;;;14.10;99.90;;;;;;5104197;27;20459;-82
2023/08/06 00:07:49;;;;;;;22.55;16.63;;;14.10;99.90;;;;;;5099570;27;20491;-81
2023/08/06 00:10:15;;;;;;;22.73;15.07;;;14.10;99.90;;;;;;5088850;27;20070;-81
2023/08/06 00:12:41;;;;;;;19.63;14.18;;;14.10;99.90;;;;;;5123874;27;20494;-82
2023/08/06 00:15:07;;;;;;;19.73;12.90;;;14.10;99.90;;;;;;5111256;27;20077;-81
2023/08/06 00:17:37;;;;;;;16.73;12.60;;;14.10;99.90;;;;;;5108597;27;20030;-81
2023/08/06 00:20:08;;;;;;;19.00;12.35;;;14.10;99.90;;;;;;5093800;27;20413;-82
2023/08/06 00:22:38;;;;;;;15.35;10.70;;;14.10;99.90;;;;;;5097927;27;20042;-81
2023/08/06 00:25:05;;;;;;;14.88;10.60;;;14.10;99.90;;;;;;5091170;27;20469;-81
2023/08/06 00:27:32;;;;;;;12.43;9.90;;;14.00;99.90;;;;;;5104142;27;20043;-81
2023/08/06 00:29:58;;;;;;;17.25;10.25;;;14.10;99.90;;;;;;5118874;27;20395;-82
2023/08/06 00:32:24;;;;;;;15.00;10.10;;;14.10;99.90;;;;;;5097477;27;20054;-81
2023/08/06 00:34:50;;;;;;;12.45;9.57;;;14.10;99.90;;;;;;5105510;27;20042;-82
2023/08/06 00:37:16;;;;;;;11.80;9.07;;;14.10;99.90;;;;;;5121409;27;20397;-82
2023/08/06 00:39:43;;;;;;;14.32;9.60;;;14.10;99.90;;;;;;5091061;27;20673;-82
2023/08/06 00:42:09;;;;;;;13.00;8.40;;;14.10;99.90;;;;;;5108054;27;20034;-82
2023/08/06 00:44:36;;;;;;;12.75;8.93;;;14.10;99.90;;;;;;5088624;27;20054;-82
2023/08/06 00:47:02;;;;;;;11.70;9.18;;;14.10;99.90;;;;;;5093926;27;20042;-82
2023/08/06 00:49:28;;;;;;;13.07;8.52;;;14.00;99.90;;;;;;5100821;27;20046;-82
2023/08/06 00:51:54;;;;;;;11.05;8.48;;;14.00;99.90;;;;;;5084404;27;20118;-82
2023/08/06 00:54:20;;;;;;;9.60;8.05;;;14.00;99.90;;;;;;5103205;27;20543;-82
2023/08/06 00:56:47;;;;;;;12.63;8.63;;;14.10;99.90;;;;;;5103032;27;20036;-82
2023/08/06 00:59:13;;;;;;;10.77;8.32;;;14.10;99.90;;;;;;5093063;27;20394;-82
2023/08/06 01:01:39;;;;;;;12.90;8.82;;;14.10;99.90;;;;;;5091024;27;20456;-82
2023/08/06 01:04:05;;;;;;;10.25;8.68;;;14.10;99.90;;;;;;5102575;27;20035;-82
2023/08/06 01:06:43;;;;;;;10.07;7.63;;;14.10;99.90;;;;;;5091867;27;20605;-82
2023/08/06 01:09:18;;;;;;;12.57;8.52;;;14.00;99.90;;;;;;5102340;27;20038;-81
2023/08/06 01:12:20;;;;;;;11.25;8.85;;;14.10;99.90;;;;;;5103226;27;20584;-82
2023/08/06 01:15:10;;;;;;;12.85;8.93;;;14.10;99.90;;;;;;5090446;27;20043;-81
2023/08/06 01:17:36;;;;;;;11.80;9.00;;;14.10;99.90;;;;;;5128469;27;20039;-82
2023/08/06 01:20:02;;;;;;;12.05;9.10;;;14.10;99.90;;;;;;5109361;27;20354;-82
2023/08/06 01:22:28;;;;;;;10.55;8.80;;;14.10;99.90;;;;;;5091172;27;20035;-82
2023/08/06 01:24:54;;;;;;;10.82;8.25;;;14.10;99.90;;;;;;5103919;27;20047;-82
2023/08/06 01:27:36;;;;;;;11.05;9.13;;;14.10;99.90;;;;;;5124590;27;20065;-81
2023/08/06 01:30:27;;;;;;;13.20;9.27;;;14.10;99.90;;;;;;5110647;27;20035;-81
2023/08/06 01:32:57;;;;;;;12.57;9.18;;;14.10;99.90;;;;;;5115126;27;20043;-82
2023/08/06 01:35:24;;;;;;;14.07;10.27;;;14.10;99.90;;;;;;5115709;27;20092;-81
2023/08/06 01:37:51;;;;;;;15.40;10.15;;;14.10;99.90;;;;;;5092258;27;20027;-81
2023/08/06 01:40:16;;;;;;;13.73;10.38;;;14.10;99.90;;;;;;5126943;27;20557;-82
2023/08/06 01:42:42;;;;;;;14.05;10.48;;;14.10;99.90;;;;;;5115141;27;20030;-82
2023/08/06 01:45:09;;;;;;;15.18;11.40;;;14.10;99.90;;;;;;5089589;27;20097;-82
2023/08/06 01:47:35;;;;;;;14.30;10.38;;;14.10;99.90;;;;;;5088034;27;20716;-81
2023/08/06 01:50:01;;;;;;;13.02;10.90;;;14.00;99.90;;;;;;5087963;27;20383;-82
2023/08/06 01:52:27;;;;;;;13.52;10.93;;;14.10;99.90;;;;;;5101915;27;20338;-81
2023/08/06 01:54:53;;;;;;;16.02;11.60;;;14.10;99.90;;;;;;5107047;27;20134;-82
2023/08/06 01:57:18;;;;;;;15.75;11.88;;;14.10;99.90;;;;;;5098852;27;20214;-82
2023/08/06 01:59:44;;;;;;;14.77;11.23;;;14.10;99.90;;;;;;5092500;27;20035;-82
2023/08/06 02:02:10;;;;;;;14.23;11.27;;;14.10;99.90;;;;;;5103604;27;20042;-82
2023/08/06 02:04:35;;;;;;;15.60;11.52;;;14.10;99.90;;;;;;5087676;27;20039;-81
2023/08/06 02:07:01;;;;;;;15.85;12.30;;;14.10;99.90;;;;;;5109562;27;20070;-81
2023/08/06 02:09:27;;;;;;;15.32;11.27;;;14.10;99.90;;;;;;5120848;27;20130;-82
2023/08/06 02:11:55;;;;;;;16.73;12.60;;;14.10;99.90;;;;;;5096162;27;20054;-82
2023/08/06 02:14:21;;;;;;;17.85;12.25;;;14.10;99.90;;;;;;5126123;27;20343;-81
2023/08/06 02:16:47;;;;;;;17.60;12.18;;;14.10;99.90;;;;;;5095761;27;20040;-82
2023/08/06 02:19:12;;;;;;;20.35;12.32;;;14.10;99.90;;;;;;5086308;27;20516;-81
2023/08/06 02:21:38;;;;;;;15.70;11.40;;;14.10;99.90;;;;;;5102290;27;20430;-81
2023/08/06 02:24:04;;;;;;;15.68;10.85;;;14.10;99.90;;;;;;5107795;27;20109;-82
2023/08/06 02:26:29;;;;;;;15.63;10.95;;;14.10;99.90;;;;;;5101130;27;20543;-81
2023/08/06 02:28:55;;;;;;;17.80;11.30;;;14.10;99.90;;;;;;5109126;27;20119;-82
2023/08/06 02:31:21;;;;;;;13.63;11.38;;;14.10;99.90;;;;;;5099115;27;20410;-81
2023/08/06 02:33:46;;;;;;;13.20;10.73;;;14.10;99.90;;;;;;5087245;27;20035;-81
2023/08/06 02:36:12;;;;;;;15.57;11.15;;;14.10;99.90;;;;;;5102180;27;20047;-81
2023/08/06 02:38:38;;;;;;;14.40;10.77;;;14.10;99.90;;;;;;5086688;27;20047;-81
2023/08/06 02:41:04;;;;;;;15.25;11.00;;;14.10;99.90;;;;;;5108714;27;20147;-81
2023/08/06 02:43:30;;;;;;;14.55;11.18;;;14.00;99.90;;;;;;5108164;27;20039;-82
2023/08/06 02:46:04;;;;;;;12.32;10.27;;;14.00;99.90;;;;;;5095748;27;20051;-82
2023/08/06 02:48:32;;;;;;;13.00;10.07;;;14.10;99.90;;;;;;5093416;27;20045;-81
2023/08/06 02:50:59;;;;;;;14.80;10.57;;;14.00;99.90;;;;;;5108410;27;20035;-82
2023/08/06 02:53:25;;;;;;;13.80;10.68;;;14.00;99.90;;;;;;5097670;27;20095;-81
2023/08/06 02:55:51;;;;;;;14.45;10.95;;;14.00;99.90;;;;;;5087009;27;20320;-81
2023/08/06 02:58:23;;;;;;;14.90;10.27;;;14.00;99.90;;;;;;5114595;27;20039;-81
2023/08/06 03:01:06;;;;;;;13.57;10.65;;;14.00;99.90;;;;;;5111199;27;20087;-81
2023/08/06 03:03:33;;;;;;;13.68;10.30;;;14.00;99.90;;;;;;5106224;27;20128;-82
2023/08/06 03:05:59;;;;;;;13.45;10.32;;;14.00;99.90;;;;;;5101702;27;20034;-81
2023/08/06 03:08:25;;;;;;;13.00;10.73;;;14.00;99.90;;;;;;5105790;27;20053;-81
2023/08/06 03:10:52;;;;;;;11.63;9.50;;;14.00;99.90;;;;;;5098337;27;20039;-81
2023/08/06 03:13:18;;;;;;;12.15;10.02;;;14.00;99.90;;;;;;5114355;27;20047;-81
2023/08/06 03:15:53;;;;;;;12.90;9.88;;;14.00;99.90;;;;;;5115226;27;20512;-81
2023/08/06 03:18:22;;;;;;;13.02;9.88;;;14.00;99.90;;;;;;5090346;27;20246;-81
2023/08/06 03:20:48;;;;;;;13.45;10.27;;;14.00;99.90;;;;;;5106401;27;20054;-81
2023/08/06 03:23:13;;;;;;;12.45;10.07;;;14.00;99.90;;;;;;5107517;27;20067;-81
2023/08/06 03:25:39;;;;;;;12.85;10.40;;;14.00;99.90;;;;;;5092593;27;20035;-81
2023/08/06 03:28:04;;;;;;;11.95;10.25;;;14.00;99.90;;;;;;5111979;27;20424;-81
2023/08/06 03:30:30;;;;;;;13.45;9.50;;;14.00;99.90;;;;;;5104426;27;20048;-81
2023/08/06 03:32:56;;;;;;;13.25;9.25;;;14.00;99.90;;;;;;5088290;27;20050;-81
2023/08/06 03:35:22;;;;;;;12.75;8.75;;;14.00;99.90;;;;;;5116793;27;20461;-81
2023/08/06 03:37:48;;;;;;;11.73;8.93;;;14.00;99.90;;;;;;5128265;27;20591;-81
2023/08/06 03:40:14;;;;;;;17.65;10.25;;;14.00;99.90;;;;;;5084923;27;20031;-81
2023/08/06 03:42:39;;;;;;;11.38;8.95;;;14.00;99.90;;;;;;5107770;27;20134;-81
2023/08/06 03:45:06;;;;;;;12.98;9.65;;;14.00;99.90;;;;;;5085943;27;20047;-81
2023/08/06 03:47:31;;;;;;;13.10;9.88;;;14.00;99.90;;;;;;5104765;27;20047;-81
2023/08/06 03:49:57;;;;;;;12.57;9.10;;;13.90;99.90;;;;;;5101746;27;20039;-81
2023/08/06 03:52:32;;;;;;;10.30;8.30;;;13.90;99.90;;;;;;5115541;27;20043;-81
2023/08/06 03:54:57;;;;;;;12.25;8.68;;;13.90;99.90;;;;;;5093479;27;20070;-81
2023/08/06 03:57:23;;;;;;;10.30;8.40;;;13.80;99.90;;;;;;5095943;27;20085;-81
2023/08/06 03:59:48;;;;;;;12.32;9.10;;;13.80;99.90;;;;;;5113895;27;20463;-81
2023/08/06 04:02:14;;;;;;;12.38;8.90;;;13.80;99.90;;;;;;5111475;27;20041;-81
2023/08/06 04:04:40;;;;;;;11.88;9.50;;;13.70;99.90;;;;;;5105353;27;20100;-81
2023/08/06 04:07:05;;;;;;;12.68;9.23;;;13.70;99.90;;;;;;5084377;27;20435;-81
2023/08/06 04:09:31;;;;;;;12.57;9.45;;;13.70;99.90;;;;;;5092020;27;20038;-81
2023/08/06 04:11:58;;;;;;;14.27;9.73;;;13.60;99.90;;;;;;5102637;27;20509;-81
2023/08/06 04:14:25;;;;;;;12.32;9.27;;;13.60;99.90;;;;;;5127244;27;20040;-81
2023/08/06 04:16:51;;;;;;;11.98;9.93;;;13.60;99.90;;;;;;5109207;27;20030;-81
2023/08/06 04:19:16;;;;;;;12.35;9.25;;;13.70;99.90;;;;;;5087184;27;20410;-81
2023/08/06 04:21:42;;;;;;;11.43;9.45;;;13.70;99.90;;;;;;5106098;27;20035;-81
2023/08/06 04:24:08;;;;;;;14.13;10.18;;;13.70;99.90;;;;;;5092089;27;20045;-81
2023/08/06 04:26:34;;;;;;;12.70;10.35;;;13.70;99.90;;;;;;5081144;27;20141;-81
2023/08/06 04:28:59;;;;;;;12.85;10.10;;;13.70;99.90;;;;;;5089965;27;20146;-81
2023/08/06 04:31:25;;;;;;;13.80;9.07;;;13.80;99.90;;;;;;5089520;27;20042;-81
2023/08/06 04:33:51;;;;;;;12.38;9.57;;;13.70;99.90;;;;;;5093744;27;20035;-81
2023/08/06 04:36:16;;;;;;;13.07;9.57;;;13.70;99.90;;;;;;5091986;27;20397;-81
2023/08/06 04:38:45;;;;;;;15.45;10.07;;;13.70;99.90;;;;;;5085977;27;20042;-81
2023/08/06 04:41:11;;;;;;;12.98;10.35;;;13.60;99.90;;;;;;5088180;27;20031;-81
2023/08/06 04:43:40;;;;;;;13.57;9.73;;;13.60;99.90;;;;;;5106938;27;20118;-81
2023/08/06 04:46:05;;;;;;;12.13;8.95;;;13.70;99.90;;;;;;5085717;27;20038;-81
2023/08/06 04:48:31;;;;;;;12.52;9.55;;;13.60;99.90;;;;;;5104257;27;20489;-81
2023/08/06 04:50:56;;;;;;;12.63;9.25;;;13.60;99.90;;;;;;5106595;27;20424;-81
2023/08/06 04:53:22;;;;;;;15.18;9.77;;;13.60;99.90;;;;;;5081178;27;20036;-81
2023/08/06 04:55:48;;;;;;;13.57;9.68;;;13.60;99.90;;;;;;5115423;27;20050;-81
2023/08/06 04:58:13;;;;;;;14.75;10.13;;;13.60;99.90;;;;;;5109415;27;20153;-81
2023/08/06 05:00:39;;;;;;;13.15;9.20;;;13.60;99.90;;;;;;5109679;27;20044;-81
2023/08/06 05:03:05;;;;;;;12.43;9.55;;;13.50;99.90;;;;;;5084093;27;20153;-81
2023/08/06 05:05:31;;;;;;;13.35;9.85;;;13.70;99.90;;;;;;5084219;27;20043;-81
2023/08/06 05:07:57;;;;;;;13.63;10.65;;;13.80;99.90;;;;;;5088567;27;20123;-81
2023/08/06 05:10:25;;;;;;;14.90;10.43;;;13.90;99.90;;;;;;5092288;27;20070;-81
2023/08/06 05:12:51;;;;;;;13.70;9.40;;;13.90;99.90;;;;;;5097975;27;20039;-81
2023/08/06 05:15:17;;;;;;;13.57;10.13;;;14.10;99.90;;;;;;5096901;27;20413;-81
2023/08/06 05:17:42;;;;;;;17.63;10.80;;;14.20;99.90;;;;;;5088510;27;20046;-81
2023/08/06 05:20:09;;;;;;;15.10;10.20;;;14.30;99.90;;;;;;5093931;27;20045;-81
2023/08/06 05:22:34;;;;;;;14.63;9.88;;;14.20;99.90;;;;;;5092178;27;20789;-81
2023/08/06 05:25:00;;;;;;;14.80;9.77;;;14.20;99.90;;;;;;5103503;27;20058;-81
2023/08/06 05:27:25;;;;;;;12.95;9.20;;;14.20;99.90;;;;;;5107831;27;20042;-81
2023/08/06 05:29:56;;;;;;;13.05;9.75;;;14.20;99.90;;;;;;5106071;27;20063;-81
2023/08/06 05:32:21;;;;;;;15.18;9.95;;;14.20;99.90;;;;;;5124300;27;20514;-81
2023/08/06 05:34:47;;;;;;;12.32;8.90;;;14.10;99.90;;;;;;5090095;27;20187;-81
2023/08/06 05:37:13;;;;;;;12.50;8.43;;;14.10;99.90;;;;;;5085256;27;20606;-81
2023/08/06 05:39:38;;;;;;;14.13;9.05;;;14.00;99.90;;;;;;5098524;27;20046;-81
2023/08/06 05:42:04;;;;;;;11.63;9.13;;;14.10;99.90;;;;;;5111198;27;20068;-81
2023/08/06 05:44:30;;;;;;;13.13;9.60;;;14.10;99.90;;;;;;5102506;27;20840;-81
2023/08/06 05:46:58;;;;;;;12.80;8.77;;;14.10;99.90;;;;;;5085530;27;20635;-81
2023/08/06 05:49:24;;;;;;;11.35;8.65;;;14.20;99.90;;;;;;5103541;27;20043;-81
2023/08/06 05:51:50;;;;;;;13.07;9.00;;;14.30;99.90;;;;;;5101463;27;20062;-81
2023/08/06 05:54:15;;;;;;;13.20;9.57;;;14.30;99.90;;;;;;5121735;27;20039;-81
2023/08/06 05:56:41;;;;;;;12.60;9.23;;;14.40;99.90;;;;;;5093880;27;20040;-81
2023/08/06 05:59:06;;;;;;;12.45;9.13;;;14.50;99.90;;;;;;5107788;27;20114;-81
2023/08/06 06:01:32;;;;;;;15.40;9.57;;;14.50;99.90;;;;;;5111292;27;20383;-81
2023/08/06 06:03:58;;;;;;;13.80;8.60;;;14.70;99.90;;;;;;5110955;27;20053;-81
2023/08/06 06:06:23;;;;;;;12.90;9.15;;;14.80;99.90;;;;;;5114203;27;20307;-81
2023/08/06 06:08:49;;;;;;;10.77;8.73;;;14.80;99.90;;;;;;5098085;27;20478;-81
2023/08/06 06:11:15;;;;;;;13.07;8.50;;;14.90;99.90;;;;;;5103459;27;20482;-81
2023/08/06 06:13:40;;;;;;;12.02;8.95;;;15.00;99.90;;;;;;5095686;27;20031;-81
2023/08/06 06:16:06;;;;;;;13.63;8.20;;;15.20;99.90;;;;;;5090650;27;20028;-81
2023/08/06 06:18:32;;;;;;;13.38;8.80;;;15.30;99.90;;;;;;5091752;27;20042;-81
2023/08/06 06:20:57;;;;;;;11.80;8.45;;;15.40;99.90;;;;;;5105981;27;20114;-81
2023/08/06 06:23:23;;;;;;;11.80;8.55;;;15.40;99.90;;;;;;5121772;27;20083;-81
2023/08/06 06:25:53;;;;;;;12.77;8.15;;;15.40;99.90;;;;;;5097797;27;20122;-81
2023/08/06 06:28:19;;;;;;;12.35;8.50;;;15.50;99.90;;;;;;5111664;27;20396;-81
2023/08/06 06:30:44;;;;;;;10.45;8.38;;;15.70;99.90;;;;;;5108169;27;20035;-81
2023/08/06 06:33:10;;;;;;;13.93;8.88;;;15.80;99.90;;;;;;5102406;27;20091;-81
2023/08/06 06:35:36;;;;;;;11.48;7.80;;;15.90;99.90;;;;;;5098458;27;20039;-81
2023/08/06 06:38:04;;;;;;;10.82;8.13;;;16.00;99.90;;;;;;5091730;27;20042;-81
2023/08/06 06:40:30;;;;;;;10.85;8.02;;;16.00;99.90;;;;;;5112572;27;20034;-81
2023/08/06 06:42:55;;;;;;;10.38;7.97;;;16.10;99.90;;;;;;5102306;27;20463;-81
2023/08/06 06:45:21;;;;;;;13.23;8.20;;;16.30;99.90;;;;;;5098890;27;20059;-81
2023/08/06 06:47:47;;;;;;;10.85;8.32;;;16.40;99.90;;;;;;5087870;27;20456;-81
2023/08/06 06:50:12;;;;;;;11.07;8.10;;;16.40;99.90;;;;;;5088903;27;20518;-81
2023/08/06 06:52:38;;;;;;;10.57;8.07;;;16.40;99.90;;;;;;5090165;27;20039;-81
2023/08/06 06:55:05;;;;;;;9.88;8.05;;;16.30;99.90;;;;;;5091082;27;20035;-81
2023/08/06 06:57:30;;;;;;;10.25;8.27;;;16.40;99.90;;;;;;5085763;27;20039;-81
2023/08/06 06:59:56;;;;;;;11.32;7.55;;;16.60;99.90;;;;;;5133420;27;20340;-81
2023/08/06 07:02:22;;;;;;;11.38;8.00;;;16.80;99.90;;;;;;5114211;27;20184;-82
2023/08/06 07:04:47;;;;;;;10.85;7.88;;;16.90;99.90;;;;;;5105973;27;20396;-81
2023/08/06 07:07:13;;;;;;;9.73;8.05;;;17.00;99.90;;;;;;5094458;27;20042;-82
2023/08/06 07:09:39;;;;;;;9.82;8.00;;;17.10;99.90;;;;;;5084543;27;20115;-82
2023/08/06 07:12:04;;;;;;;9.13;7.65;;;17.20;99.90;;;;;;5092558;27;20038;-82
2023/08/06 07:14:31;;;;;;;11.45;7.88;;;17.40;99.90;;;;;;5131096;27;20393;-82
2023/08/06 07:16:57;;;;;;;8.77;7.43;;;17.50;99.90;;;;;;5091268;27;20510;-83
2023/08/06 07:19:23;;;;;;;10.13;7.47;;;17.60;99.90;;;;;;5087468;27;20088;-81
2023/08/06 07:21:52;;;;;;;9.18;6.85;;;17.60;99.90;;;;;;5101604;27;20043;-82
2023/08/06 07:24:19;;;;;;;9.10;7.00;;;17.60;99.90;;;;;;5091366;27;20047;-82
2023/08/06 07:26:45;;;;;;;8.88;7.05;;;17.60;99.90;;;;;;5108580;27;20273;-81
2023/08/06 07:29:10;;;;;;;11.52;7.55;;;17.80;99.90;;;;;;5132534;27;20089;-82
2023/08/06 07:31:36;;;;;;;7.45;6.60;;;17.90;99.90;;;;;;5111432;27;20038;-81
2023/08/06 07:34:02;;;;;;;8.30;6.88;;;18.00;99.90;;;;;;5089579;27;20026;-82
2023/08/06 07:36:28;;;;;;;9.02;6.72;;;17.70;99.90;;;;;;5089010;27;20076;-81
2023/08/06 07:38:56;;;;;;;9.13;6.80;;;17.70;99.90;;;;;;5106632;27;20051;-81
2023/08/06 07:41:25;;;;;;;8.85;6.93;;;17.80;99.90;;;;;;5089459;27;20043;-82
2023/08/06 07:43:51;;;;;;;7.57;6.65;;;17.80;99.90;;;;;;5104489;27;20051;-82
2023/08/06 07:46:17;;;;;;;6.97;5.93;;;17.70;99.90;;;;;;5109758;27;20401;-82
2023/08/06 07:48:43;;;;;;;9.48;6.88;;;18.00;99.90;;;;;;5104332;27;20162;-83
2023/08/06 07:51:08;;;;;;;7.80;6.93;;;18.10;99.90;;;;;;5088090;27;20332;-82
2023/08/06 07:53:34;;;;;;;8.35;6.53;;;17.80;99.90;;;;;;5127022;27;20038;-81
2023/08/06 07:56:02;;;;;;;8.75;6.82;;;17.80;99.90;;;;;;5086015;27;20380;-82
2023/08/06 07:58:29;;;;;;;6.80;6.10;;;17.80;99.90;;;;;;5090929;27;20498;-81
2023/08/06 08:00:55;;;;;;;7.93;6.70;;;17.70;99.90;;;;;;5104354;27;20031;-82
2023/08/06 08:03:23;;;;;;;7.78;6.30;;;18.00;99.90;;;;;;5104405;27;22140;-82
2023/08/06 08:05:48;;;;;;;7.20;6.05;;;17.90;99.90;;;;;;5092142;27;20346;-81
2023/08/06 08:08:14;;;;;;;7.55;6.15;;;17.70;99.90;;;;;;5083807;27;20039;-82
2023/08/06 08:10:40;;;;;;;13.48;7.65;;;17.60;99.90;;;;;;5100235;27;20070;-82
2023/08/06 08:13:06;;;;;;;6.95;6.25;;;17.40;99.90;;;;;;5108164;27;20295;-82
2023/08/06 08:15:32;;;;;;;7.07;6.15;;;17.30;99.90;;;;;;5089154;27;20042;-82
2023/08/06 08:17:58;;;;;;;7.28;6.43;;;17.30;99.90;;;;;;5084525;27;20085;-82
2023/08/06 08:20:27;;;;;;;6.40;5.72;;;17.20;99.90;;;;;;5105684;27;20501;-82
2023/08/06 08:22:53;;;;;;;8.55;6.00;;;17.60;99.90;;;;;;5118938;27;20534;-81
2023/08/06 08:25:22;;;;;;;8.65;6.70;;;17.90;99.90;;;;;;5106795;27;20033;-82
2023/08/06 08:27:47;;;;;;;8.85;6.53;;;18.00;99.90;;;;;;5110176;27;20035;-81
2023/08/06 08:30:15;;;;;;;10.05;6.85;;;17.90;99.90;;;;;;5094971;27;20074;-82
2023/08/06 08:32:41;;;;;;;7.60;5.97;;;18.00;99.90;;;;;;5090275;27;20039;-82
2023/08/06 08:35:07;;;;;;;7.35;5.90;;;17.80;99.90;;;;;;5087742;27;20422;-82
2023/08/06 08:37:33;;;;;;;6.60;5.30;;;17.80;99.90;;;;;;5101118;27;20075;-82
2023/08/06 08:39:58;;;;;;;5.65;4.93;;;18.30;99.90;;;;;;5108056;27;20187;-82
2023/08/06 08:42:24;;;;;;;6.45;5.43;;;18.50;99.90;;;;;;5089117;27;20031;-82
2023/08/06 08:44:50;;;;;;;6.22;4.93;;;18.70;99.90;;;;;;5092382;27;20061;-82
2023/08/06 08:47:16;;;;;;;7.50;5.47;;;19.20;99.90;;;;;;5100792;27;20126;-82
2023/08/06 08:49:43;;;;;;;10.13;4.97;;;18.80;99.90;;;;;;5093960;27;20126;-82
2023/08/06 08:52:15;;;;;;;5.57;4.10;;;18.90;99.90;;;;;;5100230;27;20154;-82
2023/08/06 08:54:43;;;;;;;4.95;4.05;;;18.90;99.90;;;;;;5101598;27;20336;-82
2023/08/06 08:57:09;;;;;;;7.88;4.70;;;19.20;99.90;;;;;;5082879;28;20639;-82
2023/08/06 08:59:37;;;;;;;5.78;4.30;;;19.30;99.90;;;;;;5089163;28;20127;-82
2023/08/06 09:02:03;;;;;;;5.53;4.38;;;19.60;99.90;;;;;;5111637;27;20089;-82
2023/08/06 09:04:32;;;;;;;5.05;4.18;;;19.50;99.90;;;;;;5104910;27;20439;-82
2023/08/06 09:06:59;;;;;;;5.07;4.30;;;20.00;99.90;;;;;;5084971;28;20043;-82
2023/08/06 09:09:37;;;;;;;8.20;4.47;;;20.00;99.90;;;;;;5088567;27;20040;-82
2023/08/06 09:12:14;;;;;;;4.32;3.58;;;20.50;99.90;;;;;;5097354;28;20514;-82
2023/08/06 09:14:40;;;;;;;5.05;3.50;;;19.90;99.90;;;;;;5083605;28;20104;-82
2023/08/06 09:17:06;;;;;;;5.32;3.42;;;20.30;99.90;;;;;;5097783;28;20036;-82
2023/08/06 09:19:32;;;;;;;4.40;2.78;;;20.00;99.90;;;;;;5088231;28;20084;-82
2023/08/06 09:21:58;;;;;;;4.57;2.78;;;19.90;99.90;;;;;;5099206;27;20657;-82
2023/08/06 09:24:26;;;;;;;3.45;2.78;;;19.80;99.90;;;;;;5092193;28;20091;-82
2023/08/06 09:26:51;;;;;;;4.20;2.92;;;19.80;99.90;;;;;;5104604;28;20510;-82
2023/08/06 09:29:17;;;;;;;4.90;2.78;;;20.10;99.90;;;;;;5101272;28;20051;-82
2023/08/06 09:31:46;;;;;;;3.63;2.38;;;20.40;99.90;;;;;;5098748;28;20035;-82
2023/08/06 09:34:20;;;;;;;2.45;2.25;;;20.50;99.90;;;;;;5085475;28;20051;-82
2023/08/06 09:36:48;;;;;;;2.53;2.10;;;20.40;99.90;;;;;;5108616;27;20039;-82
2023/08/06 09:39:18;;;;;;;3.38;2.20;;;20.00;99.90;;;;;;5103862;27;20522;-82
2023/08/06 09:41:45;;;;;;;3.22;2.30;;;19.80;99.90;;;;;;5096359;27;20046;-82
2023/08/06 09:44:18;;;;;;;3.22;2.38;;;19.90;99.90;;;;;;5087733;27;20047;-82
2023/08/06 09:46:53;;;;;;;2.75;2.08;;;20.40;99.90;;;;;;5086767;27;20529;-82
2023/08/06 09:49:20;;;;;;;3.35;2.20;;;20.20;99.90;;;;;;5123310;27;20458;-82
2023/08/06 09:51:51;;;;;;;2.80;2.10;;;20.70;99.90;;;;;;5088895;27;20063;-82
2023/08/06 09:54:22;;;;;;;3.40;2.67;;;20.80;99.90;;;;;;5087852;27;20560;-82
2023/08/06 09:56:48;;;;;;;2.75;2.55;;;21.00;99.90;;;;;;5088816;27;20047;-82
2023/08/06 09:59:15;;;;;;;2.70;2.50;;;20.80;99.90;;;;;;5106929;27;20558;-82
2023/08/06 10:01:41;;;;;;;2.92;2.50;;;21.30;99.90;;;;;;5104127;27;20031;-82
2023/08/06 10:04:11;;;;;;;2.70;2.50;;;21.40;99.90;;;;;;5095809;27;20039;-83
2023/08/06 10:06:37;;;;;;;2.60;2.30;;;21.20;99.90;;;;;;5085672;27;20051;-82
2023/08/06 10:09:06;;;;;;;4.30;3.08;;;21.10;99.90;;;;;;5086054;27;20024;-82
2023/08/06 10:11:32;;;;;;;4.70;2.45;;;21.00;99.90;;;;;;5111352;27;20038;-82
2023/08/06 10:14:07;;;;;;;4.38;2.70;;;20.70;99.90;;;;;;5109565;27;20447;-82
2023/08/06 10:16:34;;;;;;;2.67;2.30;;;20.90;99.90;;;;;;5090842;27;20088;-82
2023/08/06 10:19:01;;;;;;;3.22;2.25;;;20.70;99.90;;;;;;5098325;27;20043;-82
2023/08/06 10:21:27;;;;;;;2.72;2.30;;;21.00;99.90;;;;;;5096962;27;20050;-82
2023/08/06 10:23:55;;;;;;;2.38;2.10;;;21.00;99.90;;;;;;5099567;27;20531;-82
2023/08/06 10:26:24;;;;;;;2.95;1.92;;;21.20;99.90;;;;;;5094395;27;20046;-82
2023/08/06 10:28:50;;;;;;;2.85;2.17;;;21.00;99.90;;;;;;5105127;27;20212;-82
2023/08/06 10:31:15;;;;;;;2.50;1.98;;;21.20;99.90;;;;;;5110965;27;20315;-82
2023/08/06 10:33:46;;;;;;;3.30;2.00;;;21.10;99.90;;;;;;5102734;27;20339;-82
2023/08/06 10:36:12;;;;;;;2.90;2.22;;;21.10;99.90;;;;;;5098325;27;20031;-82
2023/08/06 10:38:49;;;;;;;3.03;2.00;;;21.50;99.90;;;;;;5105753;27;20036;-82
2023/08/06 10:41:36;;;;;;;3.20;2.10;;;21.80;99.90;;;;;;5093921;27;20034;-82
2023/08/06 10:44:09;;;;;;;2.85;1.73;;;22.10;99.90;;;;;;5089856;27;20052;-82
2023/08/06 10:46:36;;;;;;;3.20;2.10;;;22.30;99.90;;;;;;5084182;27;20423;-82
2023/08/06 10:49:03;;;;;;;3.50;2.25;;;22.30;99.90;;;;;;5087207;27;20039;-82
2023/08/06 10:51:29;;;;;;;2.60;1.73;;;21.40;99.90;;;;;;5112267;27;20062;-82
2023/08/06 10:53:55;;;;;;;4.60;2.40;;;21.60;99.90;;;;;;5090873;27;20071;-82
2023/08/06 10:56:23;;;;;;;3.65;2.20;;;21.50;99.90;;;;;;5104434;27;20028;-81
2023/08/06 10:58:51;;;;;;;2.58;1.88;;;21.80;99.90;;;;;;5090216;27;20042;-82
2023/08/06 11:01:18;;;;;;;2.30;2.00;;;21.80;99.90;;;;;;5107117;27;20906;-82
2023/08/06 11:03:46;;;;;;;2.85;2.03;;;22.20;99.90;;;;;;5108261;27;20496;-81
2023/08/06 11:06:19;;;;;;;3.22;1.88;;;22.60;99.90;;;;;;5114357;27;20095;-81
2023/08/06 11:08:52;;;;;;;1.98;1.63;;;22.80;99.90;;;;;;5084269;27;20047;-81
2023/08/06 11:11:19;;;;;;;1.83;1.50;;;23.40;99.90;;;;;;5092544;27;20143;-82
2023/08/06 11:13:46;;;;;;;2.20;1.80;;;23.10;99.90;;;;;;5109410;27;20474;-82
2023/08/06 11:16:14;;;;;;;3.40;1.70;;;22.70;99.90;;;;;;5086257;27;20121;-82
2023/08/06 11:18:43;;;;;;;2.00;1.60;;;22.60;99.90;;;;;;5082754;28;20036;-82
2023/08/06 11:21:09;;;;;;;2.13;1.58;;;23.40;99.90;;;;;;5108275;27;20032;-81
2023/08/06 11:23:35;;;;;;;2.88;1.77;;;23.20;99.90;;;;;;5083712;27;20079;-81
2023/08/06 11:26:01;;;;;;;2.13;1.63;;;23.70;99.90;;;;;;5090692;27;20149;-82
2023/08/06 11:28:27;;;;;;;2.58;1.65;;;24.10;99.90;;;;;;5085600;27;20138;-82
2023/08/06 11:30:55;;;;;;;2.08;1.55;;;24.60;99.90;;;;;;5096281;27;20039;-82
2023/08/06 11:33:22;;;;;;;3.40;1.80;;;24.90;99.90;;;;;;5101113;27;20496;-82
2023/08/06 11:35:49;;;;;;;2.25;1.40;;;25.10;99.90;;;;;;5105902;27;20432;-82
2023/08/06 11:38:16;;;;;;;3.53;1.70;;;24.90;99.90;;;;;;5078856;27;20040;-82
2023/08/06 11:40:44;;;;;;;2.85;1.67;;;23.90;99.90;;;;;;5107538;27;20043;-82
2023/08/06 11:43:10;;;;;;;3.17;1.90;;;24.60;99.90;;;;;;5089552;27;20409;-82
2023/08/06 11:45:36;;;;;;;1.92;1.70;;;23.20;99.90;;;;;;5112668;27;20130;-82
2023/08/06 11:48:02;;;;;;;2.55;1.98;;;22.40;99.90;;;;;;5084503;28;20120;-81
2023/08/06 11:50:28;;;;;;;2.65;2.00;;;22.10;99.90;;;;;;5089111;27;20044;-82
2023/08/06 11:53:00;;;;;;;2.17;1.60;;;21.90;99.90;;;;;;5102709;27;20062;-82
2023/08/06 11:55:30;;;;;;;3.10;1.92;;;21.30;99.90;;;;;;5084515;27;20122;-82
2023/08/06 11:57:57;;;;;;;3.28;1.95;;;21.50;99.90;;;;;;5121708;27;20035;-82
2023/08/06 12:00:26;;;;;;;2.35;2.03;;;21.70;99.90;;;;;;5085953;27;20057;-82
2023/08/06 12:02:53;;;;;;;3.10;1.98;;;22.70;99.90;;;;;;5095963;27;20106;-82
2023/08/06 12:05:28;;;;;;;2.70;2.17;;;23.50;99.90;;;;;;5105155;27;20042;-82
2023/08/06 12:07:56;;;;;;;4.80;2.30;;;22.60;99.90;;;;;;5093870;27;20394;-82
2023/08/06 12:10:25;;;;;;;2.50;2.05;;;22.30;99.90;;;;;;5096860;27;20035;-82
2023/08/06 12:12:51;;;;;;;2.30;1.80;;;21.80;99.90;;;;;;5099598;27;20192;-82
2023/08/06 12:15:17;;;;;;;2.63;1.95;;;22.30;99.90;;;;;;5082025;27;20533;-82
2023/08/06 12:17:43;;;;;;;6.20;1.83;;;23.00;99.90;;;;;;5090905;27;20043;-82
2023/08/06 12:20:10;;;;;;;2.67;2.03;;;23.80;99.90;;;;;;5092867;27;20418;-82
2023/08/06 12:22:38;;;;;;;2.10;1.70;;;23.00;99.90;;;;;;5105077;27;20039;-82
2023/08/06 12:25:13;;;;;;;2.42;1.90;;;22.60;99.90;;;;;;5091520;27;20390;-82
2023/08/06 12:27:41;;;;;;;3.45;1.88;;;23.00;99.90;;;;;;5079910;28;20043;-82
2023/08/06 12:30:08;;;;;;;2.65;1.90;;;23.90;99.90;;;;;;5106561;27;20035;-82
2023/08/06 12:32:34;;;;;;;3.85;2.30;;;23.20;99.90;;;;;;5086674;27;20083;-82
2023/08/06 12:35:00;;;;;;;3.22;1.88;;;23.50;99.90;;;;;;5105865;27;20192;-82
2023/08/06 12:37:26;;;;;;;2.22;1.75;;;23.20;99.90;;;;;;5095470;27;20043;-82